Time;durP1;ratioP1;P1;durP2;ratioP2;P2;SDS_P1;SDS_P2;PMS_P1;PMS_P2;Temp;Humidity;BMP_temperature;BMP_pressure;BME280_temperature;BME280_humidity;BME280_pressure;Samples;Min_cycle;Max_cycle;Signal;HPM_P1;HPM_P2
2023/09/27 00:00:25;;;;;;;11.17;10.50;;;17.40;30.70;;;;;;5002807;28;20181;-77
2023/09/27 00:02:52;;;;;;;10.53;9.93;;;17.30;30.70;;;;;;4994324;28;20719;-78
2023/09/27 00:05:19;;;;;;;11.10;10.50;;;17.30;30.90;;;;;;5002747;28;20228;-77
2023/09/27 00:07:44;;;;;;;12.27;11.57;;;17.30;31.10;;;;;;4983076;28;20436;-77
2023/09/27 00:10:11;;;;;;;10.20;9.67;;;17.30;31.00;;;;;;5001829;28;20556;-78
2023/09/27 00:12:37;;;;;;;10.40;9.90;;;17.30;31.70;;;;;;5004901;28;20197;-77
2023/09/27 00:15:04;;;;;;;11.10;10.50;;;17.30;31.00;;;;;;4997634;28;20843;-78
2023/09/27 00:17:30;;;;;;;11.40;10.70;;;17.30;31.30;;;;;;4997603;28;20463;-78
2023/09/27 00:19:56;;;;;;;11.03;10.33;;;17.20;31.20;;;;;;4997929;28;20428;-78
2023/09/27 00:22:24;;;;;;;10.73;10.10;;;17.20;31.50;;;;;;4994286;28;20874;-78
2023/09/27 00:24:50;;;;;;;10.47;9.77;;;17.10;31.70;;;;;;4999777;28;20180;-78
2023/09/27 00:27:16;;;;;;;11.40;10.60;;;17.10;32.00;;;;;;5001503;28;20497;-78
2023/09/27 00:29:41;;;;;;;11.03;10.33;;;17.10;31.70;;;;;;4994004;28;20463;-77
2023/09/27 00:32:08;;;;;;;10.97;10.27;;;17.10;31.50;;;;;;5002613;28;20185;-78
2023/09/27 00:34:34;;;;;;;11.23;10.63;;;17.10;31.70;;;;;;4999866;28;20182;-79
2023/09/27 00:37:00;;;;;;;10.13;9.63;;;17.00;32.20;;;;;;5000173;28;20792;-78
2023/09/27 00:39:26;;;;;;;11.40;10.70;;;17.00;32.00;;;;;;4993781;28;20523;-79
2023/09/27 00:41:51;;;;;;;10.77;10.13;;;17.00;32.60;;;;;;5003653;28;20250;-78
2023/09/27 00:44:17;;;;;;;11.57;10.87;;;17.00;31.90;;;;;;5001820;28;20894;-76
2023/09/27 00:46:44;;;;;;;11.03;10.53;;;17.00;31.90;;;;;;4999655;28;20178;-78
2023/09/27 00:49:10;;;;;;;11.37;10.57;;;17.00;31.90;;;;;;4999947;28;20208;-77
2023/09/27 00:51:37;;;;;;;10.87;10.07;;;17.00;31.80;;;;;;4994304;28;20867;-77
2023/09/27 00:54:04;;;;;;;11.70;11.10;;;17.00;31.50;;;;;;4985811;28;20815;-77
2023/09/27 00:56:30;;;;;;;10.53;10.03;;;17.00;31.40;;;;;;4992215;28;21016;-76
2023/09/27 00:58:56;;;;;;;11.60;10.80;;;17.00;31.60;;;;;;5003158;28;20435;-77
2023/09/27 01:01:25;;;;;;;11.20;10.50;;;17.00;31.60;;;;;;5002357;28;20425;-77
2023/09/27 01:03:52;;;;;;;10.37;9.67;;;17.00;31.40;;;;;;5002296;28;20198;-77
2023/09/27 01:06:18;;;;;;;10.37;9.87;;;17.10;31.40;;;;;;5001463;28;20908;-76
2023/09/27 01:08:45;;;;;;;9.83;9.20;;;17.00;31.10;;;;;;4999371;28;20494;-76
2023/09/27 01:11:10;;;;;;;10.07;9.47;;;17.00;31.10;;;;;;4989963;28;20782;-77
2023/09/27 01:13:36;;;;;;;11.07;10.47;;;17.10;31.30;;;;;;4973588;28;20456;-77
2023/09/27 01:16:02;;;;;;;11.23;10.63;;;17.00;31.00;;;;;;4999775;28;20186;-76
2023/09/27 01:18:28;;;;;;;11.13;10.43;;;17.00;31.30;;;;;;5001131;28;20186;-77
2023/09/27 01:20:53;;;;;;;11.73;10.83;;;16.90;31.40;;;;;;4986564;28;20442;-77
2023/09/27 01:23:19;;;;;;;11.03;10.40;;;17.00;31.50;;;;;;4986645;28;20224;-77
2023/09/27 01:25:45;;;;;;;11.33;10.73;;;17.00;31.60;;;;;;5003379;28;20184;-76
2023/09/27 01:28:11;;;;;;;10.87;10.27;;;17.00;31.60;;;;;;5002870;28;20253;-77
2023/09/27 01:30:40;;;;;;;11.23;10.53;;;16.90;31.60;;;;;;4996578;28;20504;-77
2023/09/27 01:33:10;;;;;;;10.30;9.80;;;16.90;31.60;;;;;;5014756;22;20226;-78
2023/09/27 01:35:36;;;;;;;11.10;10.40;;;16.90;31.80;;;;;;4995067;28;20479;-79
2023/09/27 01:38:03;;;;;;;10.00;9.50;;;16.90;31.70;;;;;;4998595;28;20464;-79
2023/09/27 01:40:31;;;;;;;10.90;10.30;;;17.00;31.60;;;;;;4981257;28;20804;-78
2023/09/27 01:42:58;;;;;;;11.00;10.17;;;16.90;31.50;;;;;;4998329;28;20476;-77
2023/09/27 01:45:24;;;;;;;10.77;10.10;;;16.90;31.50;;;;;;4981517;28;20439;-79
2023/09/27 01:47:49;;;;;;;10.87;10.17;;;16.90;31.40;;;;;;4998806;28;20811;-78
2023/09/27 01:50:15;;;;;;;11.00;10.30;;;16.90;31.50;;;;;;4998372;28;20239;-79
2023/09/27 01:52:40;;;;;;;11.43;10.60;;;16.90;31.50;;;;;;4999254;28;20201;-78
2023/09/27 01:55:06;;;;;;;10.47;9.77;;;16.90;31.50;;;;;;4982090;28;20193;-78
2023/09/27 01:57:32;;;;;;;9.73;9.23;;;16.90;31.60;;;;;;4999135;28;20197;-79
2023/09/27 01:59:57;;;;;;;10.07;9.57;;;16.80;31.60;;;;;;4998776;28;20429;-78
2023/09/27 02:02:23;;;;;;;10.97;10.23;;;16.90;31.50;;;;;;4997934;28;20202;-79
2023/09/27 02:04:49;;;;;;;11.03;10.33;;;16.80;31.70;;;;;;4981716;28;20185;-78
2023/09/27 02:07:14;;;;;;;10.67;9.77;;;16.80;31.60;;;;;;4998901;28;20228;-79
2023/09/27 02:09:40;;;;;;;10.97;10.40;;;16.80;31.80;;;;;;4999018;28;20186;-78
2023/09/27 02:12:05;;;;;;;11.17;10.53;;;16.80;31.80;;;;;;4981911;28;20566;-79
2023/09/27 02:14:31;;;;;;;11.80;11.00;;;16.70;31.60;;;;;;4998537;28;20209;-78
2023/09/27 02:16:56;;;;;;;11.30;10.70;;;16.70;31.60;;;;;;4999844;28;20190;-78
2023/09/27 02:19:22;;;;;;;10.60;10.00;;;16.70;31.30;;;;;;4998721;28;20186;-77
2023/09/27 02:21:48;;;;;;;11.27;10.47;;;16.70;31.60;;;;;;4999182;28;20244;-78
2023/09/27 02:24:15;;;;;;;10.33;9.80;;;16.70;31.60;;;;;;4998314;28;20216;-79
2023/09/27 02:26:40;;;;;;;11.00;10.40;;;16.70;31.50;;;;;;4998534;28;20178;-78
2023/09/27 02:29:07;;;;;;;11.17;10.47;;;16.70;31.30;;;;;;4999101;28;20514;-77
2023/09/27 02:31:32;;;;;;;10.40;9.80;;;16.70;31.20;;;;;;4980724;28;20977;-78
2023/09/27 02:33:58;;;;;;;10.80;10.30;;;16.70;31.40;;;;;;4980210;28;20995;-77
2023/09/27 02:36:25;;;;;;;10.73;10.17;;;16.70;31.30;;;;;;4999095;28;20226;-79
2023/09/27 02:38:50;;;;;;;10.60;10.00;;;16.70;31.00;;;;;;4981167;28;20444;-78
2023/09/27 02:41:17;;;;;;;9.70;9.30;;;16.60;31.30;;;;;;4998904;28;20212;-78
2023/09/27 02:43:42;;;;;;;10.10;9.60;;;16.70;31.50;;;;;;4980110;28;20206;-77
2023/09/27 02:46:08;;;;;;;11.37;10.70;;;16.60;31.30;;;;;;4981103;28;20425;-79
2023/09/27 02:48:33;;;;;;;11.20;10.60;;;16.60;31.40;;;;;;4980392;28;20642;-79
2023/09/27 02:50:59;;;;;;;10.80;10.20;;;16.60;31.40;;;;;;4980397;28;20182;-78
2023/09/27 02:53:24;;;;;;;10.00;9.43;;;16.50;31.70;;;;;;4997393;28;20214;-78
2023/09/27 02:55:50;;;;;;;10.23;9.60;;;16.40;31.80;;;;;;4999215;28;20186;-78
2023/09/27 02:58:15;;;;;;;9.77;9.17;;;16.40;31.80;;;;;;4997336;28;20194;-79
2023/09/27 03:00:42;;;;;;;11.30;10.60;;;16.40;31.80;;;;;;4997749;28;20193;-78
2023/09/27 03:03:13;;;;;;;10.27;9.57;;;16.50;31.60;;;;;;4979950;28;20257;-78
2023/09/27 03:05:39;;;;;;;10.33;9.83;;;16.50;31.50;;;;;;4980109;28;20449;-77
2023/09/27 03:08:05;;;;;;;10.10;9.50;;;16.50;31.30;;;;;;4998435;28;20999;-77
2023/09/27 03:10:31;;;;;;;10.13;9.63;;;16.50;31.20;;;;;;4998717;28;20524;-79
2023/09/27 03:12:58;;;;;;;10.20;9.70;;;16.50;31.00;;;;;;4981121;28;20198;-79
2023/09/27 03:15:24;;;;;;;10.30;9.70;;;16.50;30.90;;;;;;4998936;28;20440;-79
2023/09/27 03:17:50;;;;;;;10.10;9.57;;;16.50;31.00;;;;;;4998624;28;20803;-79
2023/09/27 03:20:15;;;;;;;10.60;10.10;;;16.50;31.10;;;;;;4998831;28;20437;-77
2023/09/27 03:22:46;;;;;;;11.20;10.60;;;16.50;31.00;;;;;;4980171;28;20213;-77
2023/09/27 03:25:12;;;;;;;10.57;9.97;;;16.40;31.10;;;;;;4980871;28;20460;-78
2023/09/27 03:27:38;;;;;;;10.80;10.10;;;16.50;30.90;;;;;;4998940;28;20429;-78
2023/09/27 03:30:05;;;;;;;10.10;9.60;;;16.50;30.80;;;;;;4998952;28;20425;-78
2023/09/27 03:32:32;;;;;;;10.40;9.90;;;16.50;30.90;;;;;;4981977;28;20441;-78
2023/09/27 03:34:58;;;;;;;10.60;10.03;;;16.40;30.90;;;;;;4998732;28;20440;-78
2023/09/27 03:37:23;;;;;;;10.60;10.00;;;16.40;30.90;;;;;;4998326;28;20441;-77
2023/09/27 03:39:52;;;;;;;10.70;10.20;;;16.40;31.00;;;;;;4997420;28;20425;-78
2023/09/27 03:42:21;;;;;;;11.33;10.47;;;16.40;30.90;;;;;;4980624;28;20209;-78
2023/09/27 03:44:50;;;;;;;10.30;9.77;;;16.30;31.10;;;;;;4998358;28;20909;-76
2023/09/27 03:47:15;;;;;;;10.60;10.10;;;16.30;31.20;;;;;;4997988;28;20440;-78
2023/09/27 03:49:41;;;;;;;10.83;10.23;;;16.30;31.40;;;;;;4980768;28;20425;-78
2023/09/27 03:52:07;;;;;;;10.00;9.40;;;16.30;31.30;;;;;;5000010;28;20189;-77
2023/09/27 03:54:33;;;;;;;10.57;10.07;;;16.30;31.50;;;;;;4998816;28;20268;-77
2023/09/27 03:56:59;;;;;;;11.00;10.50;;;16.20;31.30;;;;;;4982851;28;20441;-77
2023/09/27 03:59:24;;;;;;;10.00;9.50;;;16.20;31.30;;;;;;4999592;28;20269;-77
2023/09/27 04:01:51;;;;;;;10.97;10.27;;;16.20;31.40;;;;;;4998561;28;20194;-77
2023/09/27 04:04:17;;;;;;;10.63;10.07;;;16.20;31.40;;;;;;4981768;28;20201;-77
2023/09/27 04:06:43;;;;;;;10.47;9.97;;;16.20;31.40;;;;;;4998751;28;20516;-76
2023/09/27 04:09:09;;;;;;;11.50;10.97;;;16.20;31.40;;;;;;4998075;28;20520;-77
2023/09/27 04:11:35;;;;;;;11.67;11.07;;;16.20;31.20;;;;;;4996917;28;20560;-78
2023/09/27 04:14:00;;;;;;;10.90;10.30;;;16.20;31.30;;;;;;4995515;28;20443;-75
2023/09/27 04:16:30;;;;;;;10.20;9.60;;;16.20;31.10;;;;;;4993349;28;20253;-78
2023/09/27 04:18:58;;;;;;;11.73;11.13;;;16.10;31.60;;;;;;4993492;28;20524;-78
2023/09/27 04:21:25;;;;;;;11.13;10.63;;;16.10;31.50;;;;;;4975544;28;20422;-77
2023/09/27 04:24:00;;;;;;;11.93;11.03;;;16.20;32.10;;;;;;4992360;28;20837;-77
2023/09/27 04:26:26;;;;;;;11.00;10.40;;;16.20;31.30;;;;;;4992888;28;20413;-78
2023/09/27 04:28:52;;;;;;;11.03;10.53;;;16.20;31.40;;;;;;4977445;28;20428;-78
2023/09/27 04:31:19;;;;;;;11.80;11.20;;;16.10;31.20;;;;;;4979336;28;20832;-79
2023/09/27 04:33:45;;;;;;;10.93;10.43;;;16.20;31.40;;;;;;4996299;28;20468;-79
2023/09/27 04:36:20;;;;;;;11.60;11.00;;;16.10;31.20;;;;;;4997062;28;20428;-78
2023/09/27 04:38:47;;;;;;;11.63;10.97;;;16.10;31.50;;;;;;4988858;28;20420;-78
2023/09/27 04:41:17;;;;;;;11.37;10.87;;;16.10;31.40;;;;;;4996216;28;20524;-77
2023/09/27 04:43:44;;;;;;;11.43;10.80;;;16.10;32.20;;;;;;4996037;28;20483;-77
2023/09/27 04:46:17;;;;;;;11.00;10.40;;;16.10;31.30;;;;;;4994689;28;20424;-77
2023/09/27 04:48:43;;;;;;;10.63;10.13;;;16.10;31.20;;;;;;4993854;28;20853;-77
2023/09/27 04:51:09;;;;;;;11.27;10.47;;;16.10;31.20;;;;;;4993248;28;20440;-77
2023/09/27 04:53:37;;;;;;;11.53;10.60;;;16.10;31.10;;;;;;4994618;28;20448;-78
2023/09/27 04:56:06;;;;;;;11.97;11.27;;;16.10;31.10;;;;;;4994674;28;20429;-77
2023/09/27 04:58:32;;;;;;;11.87;11.17;;;16.10;31.10;;;;;;4997309;28;20432;-78
2023/09/27 05:00:58;;;;;;;11.93;11.33;;;16.10;31.10;;;;;;4999527;28;20417;-78
2023/09/27 05:03:24;;;;;;;11.20;10.50;;;16.10;31.10;;;;;;4999441;28;20491;-78
2023/09/27 05:05:49;;;;;;;12.20;11.60;;;16.10;31.10;;;;;;5000381;28;20182;-77
2023/09/27 05:08:15;;;;;;;10.87;10.27;;;16.10;31.00;;;;;;5000672;28;20182;-78
2023/09/27 05:10:40;;;;;;;11.87;11.27;;;16.10;30.90;;;;;;4999646;28;20200;-78
2023/09/27 05:13:06;;;;;;;11.77;11.27;;;16.10;30.80;;;;;;4999946;28;20198;-79
2023/09/27 05:15:32;;;;;;;12.47;11.87;;;16.10;31.10;;;;;;4982597;28;20194;-78
2023/09/27 05:17:58;;;;;;;12.27;11.67;;;16.00;31.10;;;;;;4999908;28;20256;-77
2023/09/27 05:20:24;;;;;;;12.87;12.07;;;16.10;31.20;;;;;;5000622;28;20437;-78
2023/09/27 05:22:49;;;;;;;12.60;11.90;;;16.10;31.10;;;;;;4999469;28;20240;-79
2023/09/27 05:25:15;;;;;;;12.00;11.40;;;16.10;31.30;;;;;;4999081;28;20452;-78
2023/09/27 05:27:41;;;;;;;12.97;12.27;;;16.00;31.50;;;;;;4999314;28;20265;-78
2023/09/27 05:30:13;;;;;;;12.23;11.63;;;16.00;31.50;;;;;;4981878;28;20190;-77
2023/09/27 05:32:40;;;;;;;11.57;10.97;;;16.00;31.60;;;;;;4978474;28;20563;-77
2023/09/27 05:35:06;;;;;;;13.53;12.70;;;16.00;31.40;;;;;;4977660;28;20926;-77
2023/09/27 05:37:32;;;;;;;13.43;12.70;;;16.00;31.60;;;;;;4977519;28;20433;-77
2023/09/27 05:39:58;;;;;;;14.83;13.83;;;16.00;31.80;;;;;;4977282;28;20937;-77
2023/09/27 05:42:23;;;;;;;13.63;12.93;;;16.00;31.90;;;;;;4996345;28;20209;-75
2023/09/27 05:44:49;;;;;;;13.43;12.53;;;16.00;31.80;;;;;;4979340;28;20209;-77
2023/09/27 05:47:15;;;;;;;14.90;13.80;;;16.00;31.60;;;;;;4997113;28;20190;-77
2023/09/27 05:49:42;;;;;;;13.43;12.63;;;16.00;31.50;;;;;;4997866;28;20396;-77
2023/09/27 05:52:12;;;;;;;15.43;14.47;;;16.00;31.40;;;;;;5000248;28;20193;-77
2023/09/27 05:54:39;;;;;;;13.77;12.80;;;16.10;31.50;;;;;;5000947;28;20448;-78
2023/09/27 05:57:06;;;;;;;14.10;13.10;;;16.10;31.50;;;;;;4981219;28;20432;-79
2023/09/27 05:59:32;;;;;;;15.37;14.37;;;16.10;31.50;;;;;;4999468;28;20479;-78
2023/09/27 06:01:58;;;;;;;14.70;13.63;;;16.10;31.70;;;;;;4999105;28;20841;-78
2023/09/27 06:04:24;;;;;;;14.07;13.07;;;16.00;31.60;;;;;;4999444;28;20453;-78
2023/09/27 06:06:50;;;;;;;13.73;12.80;;;16.00;31.90;;;;;;4998240;28;20441;-77
2023/09/27 06:09:16;;;;;;;13.67;12.73;;;16.00;31.90;;;;;;4980939;28;20186;-78
2023/09/27 06:11:42;;;;;;;13.40;12.70;;;16.00;32.00;;;;;;4998063;28;20484;-77
2023/09/27 06:14:10;;;;;;;13.50;12.70;;;16.00;32.20;;;;;;4982278;28;20441;-78
2023/09/27 06:16:39;;;;;;;14.00;13.10;;;16.10;32.20;;;;;;4999119;28;20696;-78
2023/09/27 06:19:05;;;;;;;14.47;13.60;;;16.10;32.00;;;;;;4999580;28;20790;-79
2023/09/27 06:21:32;;;;;;;13.70;12.70;;;16.10;31.90;;;;;;4998157;28;20429;-77
2023/09/27 06:23:58;;;;;;;14.23;13.40;;;16.10;32.00;;;;;;4981753;28;20540;-78
2023/09/27 06:26:24;;;;;;;14.20;13.30;;;16.10;32.00;;;;;;4979288;28;20472;-78
2023/09/27 06:28:49;;;;;;;15.23;13.97;;;16.10;32.10;;;;;;4997171;28;20739;-79
2023/09/27 06:31:15;;;;;;;13.83;13.00;;;16.20;32.00;;;;;;4997898;28;20406;-77
2023/09/27 06:33:41;;;;;;;14.37;13.33;;;16.20;32.00;;;;;;4996630;28;20221;-78
2023/09/27 06:36:10;;;;;;;14.13;13.17;;;16.30;31.90;;;;;;4996517;28;20202;-77
2023/09/27 06:38:36;;;;;;;14.40;13.50;;;16.30;31.60;;;;;;4994889;28;20253;-77
2023/09/27 06:41:02;;;;;;;14.77;13.57;;;16.30;31.70;;;;;;4977157;28;20468;-77
2023/09/27 06:43:30;;;;;;;14.63;13.47;;;16.30;31.70;;;;;;4993763;28;20893;-76
2023/09/27 06:45:55;;;;;;;15.70;14.50;;;16.30;31.80;;;;;;4995025;28;20433;-77
2023/09/27 06:48:21;;;;;;;15.60;14.30;;;16.30;31.60;;;;;;4978156;28;20421;-79
2023/09/27 06:50:48;;;;;;;15.50;14.30;;;16.30;31.40;;;;;;4979783;28;20669;-78
2023/09/27 06:53:14;;;;;;;17.23;15.60;;;16.30;31.80;;;;;;4999178;28;20963;-77
2023/09/27 06:55:40;;;;;;;16.13;14.83;;;16.30;31.70;;;;;;4998323;28;20876;-76
2023/09/27 06:58:05;;;;;;;16.10;15.13;;;16.30;31.50;;;;;;4997347;28;20475;-78
2023/09/27 07:00:31;;;;;;;14.77;13.67;;;16.30;31.70;;;;;;4998307;28;20185;-78
2023/09/27 07:02:56;;;;;;;15.53;14.13;;;16.40;31.70;;;;;;4996972;28;20214;-78
2023/09/27 07:05:23;;;;;;;15.43;14.50;;;16.40;31.20;;;;;;4997779;28;20182;-78
2023/09/27 07:07:49;;;;;;;14.70;13.73;;;16.40;30.50;;;;;;4996870;28;20190;-78
2023/09/27 07:10:15;;;;;;;16.40;15.10;;;16.40;31.20;;;;;;4998417;28;20468;-76
2023/09/27 07:12:41;;;;;;;15.00;14.00;;;16.40;31.10;;;;;;4979540;28;20440;-76
2023/09/27 07:15:14;;;;;;;14.50;13.57;;;16.40;31.30;;;;;;4998074;28;20181;-78
2023/09/27 07:17:40;;;;;;;15.03;14.13;;;16.50;31.30;;;;;;4997627;28;20520;-78
2023/09/27 07:20:20;;;;;;;15.33;14.30;;;16.50;31.00;;;;;;4997985;28;20517;-78
2023/09/27 07:22:47;;;;;;;15.00;14.00;;;16.50;31.20;;;;;;4980466;28;20668;-78
2023/09/27 07:25:14;;;;;;;15.50;14.60;;;16.50;31.40;;;;;;4999328;28;20768;-75
2023/09/27 07:27:43;;;;;;;13.07;12.43;;;16.60;31.50;;;;;;4980809;28;20422;-78
2023/09/27 07:30:17;;;;;;;14.30;13.40;;;16.60;31.60;;;;;;4997964;28;20421;-76
2023/09/27 07:32:44;;;;;;;15.00;14.17;;;16.70;31.40;;;;;;4997505;28;20432;-78
2023/09/27 07:35:13;;;;;;;14.67;13.77;;;16.70;31.50;;;;;;4977295;28;20437;-78
2023/09/27 07:37:39;;;;;;;15.60;14.50;;;16.80;31.20;;;;;;4977653;28;20425;-76
2023/09/27 07:40:10;;;;;;;15.40;14.03;;;16.80;30.90;;;;;;4992627;28;20921;-76
2023/09/27 07:42:43;;;;;;;17.10;15.90;;;16.80;30.90;;;;;;4991345;28;20515;-77
2023/09/27 07:45:20;;;;;;;14.07;13.17;;;16.90;30.80;;;;;;4992319;28;20476;-77
2023/09/27 07:47:50;;;;;;;14.70;13.70;;;16.80;31.00;;;;;;4992770;28;20416;-77
2023/09/27 07:50:17;;;;;;;15.50;14.50;;;16.90;31.20;;;;;;4993105;28;20794;-77
2023/09/27 07:52:43;;;;;;;15.90;14.77;;;17.00;30.90;;;;;;4992422;28;20467;-77
2023/09/27 07:55:11;;;;;;;16.67;15.37;;;17.00;30.60;;;;;;4993383;28;20435;-77
2023/09/27 07:57:37;;;;;;;16.70;15.30;;;16.90;31.00;;;;;;4991804;28;20425;-77
2023/09/27 08:00:09;;;;;;;16.60;15.50;;;16.90;31.40;;;;;;4974610;28;20429;-77
2023/09/27 08:02:36;;;;;;;16.13;14.53;;;16.90;31.40;;;;;;4993106;28;20754;-77
2023/09/27 08:05:09;;;;;;;17.07;15.27;;;17.00;30.90;;;;;;4993952;28;20453;-77
2023/09/27 08:07:36;;;;;;;16.40;15.30;;;17.00;31.10;;;;;;4995524;28;20854;-77
2023/09/27 08:10:02;;;;;;;15.03;14.03;;;17.10;31.10;;;;;;4994778;28;20421;-77
2023/09/27 08:12:31;;;;;;;16.53;15.47;;;17.20;31.10;;;;;;4994210;28;20498;-77
2023/09/27 08:15:00;;;;;;;16.13;14.90;;;17.20;30.70;;;;;;4993333;28;20436;-77
2023/09/27 08:17:26;;;;;;;16.37;15.07;;;17.30;30.50;;;;;;4994288;28;20432;-75
2023/09/27 08:19:52;;;;;;;15.57;14.30;;;17.40;30.00;;;;;;4993070;28;20800;-78
2023/09/27 08:22:17;;;;;;;15.30;14.20;;;17.30;30.00;;;;;;4997887;28;20201;-77
2023/09/27 08:24:43;;;;;;;16.40;14.93;;;17.40;30.10;;;;;;4997042;28;20198;-78
2023/09/27 08:27:08;;;;;;;14.33;13.53;;;17.40;30.20;;;;;;4980686;28;20188;-77
2023/09/27 08:29:34;;;;;;;14.70;13.60;;;17.50;30.00;;;;;;4994394;28;20178;-77
2023/09/27 08:32:00;;;;;;;15.07;14.17;;;17.50;29.40;;;;;;4993462;28;20174;-77
2023/09/27 08:34:26;;;;;;;14.23;13.23;;;17.60;29.60;;;;;;4975314;28;20480;-78
2023/09/27 08:36:54;;;;;;;14.37;13.57;;;17.60;29.40;;;;;;4979538;28;20189;-78
2023/09/27 08:39:20;;;;;;;13.37;12.53;;;17.70;29.30;;;;;;4997737;28;20186;-78
2023/09/27 08:41:46;;;;;;;13.23;12.43;;;17.80;29.40;;;;;;4995087;28;20775;-78
2023/09/27 08:44:15;;;;;;;14.07;13.17;;;17.80;29.30;;;;;;4994009;28;20201;-77
2023/09/27 08:46:41;;;;;;;14.80;13.60;;;17.90;29.40;;;;;;4978625;28;20245;-77
2023/09/27 08:49:10;;;;;;;14.90;13.63;;;17.90;28.90;;;;;;4995049;28;20429;-77
2023/09/27 08:51:41;;;;;;;15.13;14.00;;;18.00;28.60;;;;;;4993795;28;20182;-77
2023/09/27 08:54:07;;;;;;;13.30;12.60;;;18.30;28.80;;;;;;4978108;28;20460;-77
2023/09/27 08:56:33;;;;;;;14.33;13.50;;;18.60;28.20;;;;;;4995821;28;20433;-76
2023/09/27 08:59:00;;;;;;;13.40;12.50;;;18.90;27.50;;;;;;4987641;28;20201;-77
2023/09/27 09:01:26;;;;;;;13.13;12.20;;;19.10;26.70;;;;;;4994050;28;20451;-77
2023/09/27 09:03:52;;;;;;;13.07;12.37;;;19.40;26.00;;;;;;4994353;28;20980;-77
2023/09/27 09:06:19;;;;;;;12.07;11.27;;;19.60;26.10;;;;;;4977668;28;20241;-77
2023/09/27 09:08:46;;;;;;;13.10;12.07;;;19.80;25.60;;;;;;4996557;28;20425;-77
2023/09/27 09:11:16;;;;;;;13.90;13.03;;;20.00;24.80;;;;;;4977043;28;20435;-77
2023/09/27 09:13:59;;;;;;;12.87;12.07;;;20.10;24.30;;;;;;4992389;28;20445;-78
2023/09/27 09:16:26;;;;;;;11.70;11.10;;;20.30;23.90;;;;;;4992722;28;20804;-77
2023/09/27 09:18:54;;;;;;;12.47;11.30;;;20.40;23.90;;;;;;4993876;28;20436;-77
2023/09/27 09:21:21;;;;;;;13.87;12.87;;;20.50;23.90;;;;;;4993629;28;20853;-78
2023/09/27 09:23:49;;;;;;;11.07;10.37;;;20.70;23.10;;;;;;4993500;28;20886;-77
2023/09/27 09:26:29;;;;;;;11.87;11.10;;;20.70;22.20;;;;;;4995573;28;20516;-76
2023/09/27 09:28:56;;;;;;;12.03;11.17;;;20.90;22.70;;;;;;4995734;28;20431;-78
2023/09/27 09:31:23;;;;;;;12.30;11.50;;;21.00;22.90;;;;;;4995780;28;20428;-77
2023/09/27 09:34:08;;;;;;;11.97;10.87;;;21.10;23.10;;;;;;5000810;28;20457;-78
2023/09/27 09:36:35;;;;;;;12.80;11.90;;;21.20;22.50;;;;;;5001690;28;20472;-77
2023/09/27 09:39:13;;;;;;;12.00;10.80;;;21.30;21.30;;;;;;5000944;28;20424;-77
2023/09/27 09:41:49;;;;;;;12.40;11.60;;;21.30;21.00;;;;;;5002818;28;20440;-77
2023/09/27 09:44:24;;;;;;;11.83;11.23;;;21.40;21.50;;;;;;4999890;28;20444;-78
2023/09/27 09:46:56;;;;;;;12.50;11.63;;;21.50;21.60;;;;;;4982421;28;20421;-78
2023/09/27 09:49:22;;;;;;;11.70;10.90;;;21.50;20.60;;;;;;4981798;28;20483;-77
2023/09/27 09:51:50;;;;;;;11.47;10.53;;;21.40;20.60;;;;;;4983964;28;20421;-77
2023/09/27 09:54:27;;;;;;;12.47;11.67;;;21.50;21.00;;;;;;4984342;28;20453;-77
2023/09/27 09:56:58;;;;;;;17.00;15.60;;;21.60;20.90;;;;;;4999649;28;20413;-77
2023/09/27 09:59:31;;;;;;;12.50;11.70;;;21.60;20.70;;;;;;5001368;28;20426;-78
2023/09/27 10:01:59;;;;;;;10.83;10.13;;;21.60;21.70;;;;;;4999413;28;20417;-78
2023/09/27 10:04:26;;;;;;;11.47;10.87;;;21.70;21.30;;;;;;5000086;28;20496;-77
2023/09/27 10:06:54;;;;;;;12.17;11.27;;;21.70;20.90;;;;;;5000527;28;20426;-77
2023/09/27 10:09:24;;;;;;;12.13;11.30;;;21.90;20.90;;;;;;5000323;28;20425;-78
2023/09/27 10:11:50;;;;;;;10.77;9.97;;;21.90;20.70;;;;;;5000040;28;20432;-78
2023/09/27 10:14:17;;;;;;;10.43;10.03;;;21.80;20.20;;;;;;5001499;28;20441;-78
2023/09/27 10:16:43;;;;;;;11.07;10.17;;;21.90;20.60;;;;;;5004298;28;20182;-78
2023/09/27 10:19:09;;;;;;;10.03;9.47;;;21.90;20.50;;;;;;5004393;28;20432;-78
2023/09/27 10:21:34;;;;;;;10.50;9.80;;;22.00;20.30;;;;;;5011427;28;20417;-77
2023/09/27 10:24:01;;;;;;;9.40;8.80;;;22.00;19.80;;;;;;5007494;28;20265;-77
2023/09/27 10:26:27;;;;;;;9.83;9.23;;;22.10;21.00;;;;;;4987060;28;20178;-78
2023/09/27 10:29:06;;;;;;;10.80;9.83;;;22.20;19.60;;;;;;5003640;28;20432;-78
2023/09/27 10:31:33;;;;;;;9.13;8.63;;;22.20;19.50;;;;;;4981453;28;20180;-77
2023/09/27 10:33:59;;;;;;;9.90;9.43;;;22.30;19.60;;;;;;4999895;28;20493;-77
2023/09/27 10:36:24;;;;;;;9.67;9.07;;;22.40;19.60;;;;;;5000263;28;20862;-78
2023/09/27 10:38:50;;;;;;;9.40;9.00;;;22.50;19.50;;;;;;5000400;28;20429;-78
2023/09/27 10:41:34;;;;;;;10.10;9.60;;;22.60;19.20;;;;;;5000673;28;20198;-77
2023/09/27 10:44:02;;;;;;;9.90;9.50;;;22.60;17.90;;;;;;5000755;28;20212;-77
2023/09/27 10:46:45;;;;;;;10.03;9.50;;;22.60;17.90;;;;;;4984121;28;20417;-77
2023/09/27 10:49:11;;;;;;;12.97;12.03;;;22.70;18.30;;;;;;4979083;28;20583;-77
2023/09/27 10:51:37;;;;;;;9.77;9.13;;;22.70;18.80;;;;;;4989102;28;20425;-77
2023/09/27 10:54:09;;;;;;;9.27;8.77;;;22.70;17.80;;;;;;5001106;28;20453;-78
2023/09/27 10:56:35;;;;;;;9.30;8.90;;;22.70;16.80;;;;;;5001181;28;20508;-77
2023/09/27 10:59:02;;;;;;;9.60;9.10;;;22.60;17.50;;;;;;5001324;28;20433;-77
2023/09/27 11:01:28;;;;;;;9.93;9.33;;;22.60;17.90;;;;;;4982810;28;20433;-78
2023/09/27 11:04:01;;;;;;;10.27;9.60;;;22.70;17.80;;;;;;4997431;28;20500;-77
2023/09/27 11:06:28;;;;;;;9.67;9.17;;;22.70;17.40;;;;;;4998319;28;20425;-77
2023/09/27 11:09:05;;;;;;;9.00;8.60;;;22.60;17.30;;;;;;4980089;28;20444;-77
2023/09/27 11:11:30;;;;;;;9.23;8.43;;;22.60;17.90;;;;;;4998096;28;20433;-78
2023/09/27 11:13:56;;;;;;;9.07;8.63;;;22.60;18.00;;;;;;4998258;28;20448;-78
2023/09/27 11:16:22;;;;;;;9.80;9.30;;;22.60;16.40;;;;;;4997984;28;20609;-78
2023/09/27 11:18:57;;;;;;;9.90;9.40;;;22.60;17.10;;;;;;4998162;28;20206;-78
2023/09/27 11:21:24;;;;;;;9.63;9.23;;;22.50;17.20;;;;;;4997748;28;20186;-78
2023/09/27 11:23:54;;;;;;;9.47;8.93;;;22.50;17.00;;;;;;4997214;28;20469;-77
2023/09/27 11:26:20;;;;;;;9.07;8.73;;;22.50;16.70;;;;;;4996357;28;20425;-77
2023/09/27 11:28:58;;;;;;;9.10;8.70;;;22.50;16.30;;;;;;4998010;28;20925;-78
2023/09/27 11:31:25;;;;;;;9.17;8.57;;;22.50;15.20;;;;;;4997220;28;20863;-77
2023/09/27 11:33:51;;;;;;;9.70;9.10;;;22.50;15.70;;;;;;4997238;28;20559;-78
2023/09/27 11:36:16;;;;;;;9.73;9.00;;;22.50;15.10;;;;;;4980056;28;20491;-79
2023/09/27 11:38:51;;;;;;;10.17;9.67;;;22.50;14.80;;;;;;4997800;28;20186;-79
2023/09/27 11:41:20;;;;;;;9.40;9.10;;;22.50;14.80;;;;;;4990750;28;20247;-78
2023/09/27 11:43:46;;;;;;;8.70;8.33;;;22.50;14.10;;;;;;4996445;28;20547;-80
2023/09/27 11:46:11;;;;;;;9.90;9.40;;;22.60;13.80;;;;;;4996891;28;20417;-79
2023/09/27 11:48:39;;;;;;;9.03;8.73;;;22.60;13.60;;;;;;4996377;28;20720;-81
2023/09/27 11:51:05;;;;;;;9.50;9.10;;;22.50;13.90;;;;;;4979266;28;20429;-79
2023/09/27 11:53:30;;;;;;;9.47;9.07;;;22.50;14.40;;;;;;4996679;28;20444;-79
2023/09/27 11:55:57;;;;;;;10.10;9.60;;;22.50;14.60;;;;;;4978594;28;20678;-78
2023/09/27 11:58:23;;;;;;;9.90;9.40;;;22.60;15.40;;;;;;4995360;28;20244;-79
2023/09/27 12:00:49;;;;;;;9.07;8.67;;;22.60;15.00;;;;;;4995544;28;20421;-79
2023/09/27 12:03:14;;;;;;;9.33;8.93;;;22.50;15.00;;;;;;4995944;28;20475;-78
2023/09/27 12:05:40;;;;;;;9.33;8.93;;;22.50;15.10;;;;;;4978474;28;20209;-78
2023/09/27 12:08:06;;;;;;;9.80;9.40;;;22.50;14.80;;;;;;4978934;28;20209;-78
2023/09/27 12:10:33;;;;;;;10.83;10.33;;;22.60;14.30;;;;;;4976748;28;20186;-78
2023/09/27 12:12:59;;;;;;;9.40;8.90;;;22.70;14.90;;;;;;4994194;28;20826;-79
2023/09/27 12:15:25;;;;;;;9.43;8.93;;;22.80;13.50;;;;;;4995109;28;20425;-77
2023/09/27 12:17:50;;;;;;;9.70;8.97;;;23.00;13.30;;;;;;4995236;28;20178;-78
2023/09/27 12:20:16;;;;;;;10.13;9.63;;;23.20;13.10;;;;;;4994943;28;20245;-79
2023/09/27 12:22:42;;;;;;;8.83;8.53;;;23.20;13.60;;;;;;4976687;28;20693;-79
2023/09/27 12:25:08;;;;;;;9.03;8.60;;;23.10;13.40;;;;;;4978201;28;20488;-78
2023/09/27 12:27:34;;;;;;;10.00;9.50;;;23.10;13.60;;;;;;4995722;28;20189;-79
2023/09/27 12:30:00;;;;;;;10.20;9.70;;;23.10;13.70;;;;;;4996349;28;20429;-78